Time,TemperatureF,DewpointF,PressureIn,WindDirection,WindDirectionDegrees,WindSpeedMPH,WindSpeedGustMPH,Humidity,HourlyPrecipIn,Conditions,Clouds,dailyrainin,SoftwareType,DateUTC
2013-03-03 00:09:00,19.4,14.0,29.87,South,171,4.0,-999.0,78,-99.99,,,0.01,weatherlink.com 1.10,2013-03-03 05:09:00,
2013-03-03 00:24:00,19.4,13.0,29.88,NNW,344,3.0,-999.0,77,-99.99,,,0.00,weatherlink.com 1.10,2013-03-03 05:24:00,
2013-03-03 00:39:00,19.4,14.0,29.88,WNW,299,2.0,-999.0,78,-99.99,,,0.00,weatherlink.com 1.10,2013-03-03 05:39:00,
2013-03-03 00:54:00,19.2,13.0,29.86,SE,144,9.0,-999.0,78,-99.99,,,0.00,weatherlink.com 1.10,2013-03-03 05:54:00,
2013-03-03 01:09:00,18.9,13.0,29.86,SE,141,5.0,-999.0,79,-99.99,,,0.00,weatherlink.com 1.10,2013-03-03 06:09:00,
2013-03-03 01:24:00,18.8,14.0,29.86,SSE,157,6.0,-999.0,80,-99.99,,,0.00,weatherlink.com 1.10,2013-03-03 06:24:00,
2013-03-03 01:39:00,18.6,13.0,29.86,SSE,152,6.0,-999.0,78,-99.99,,,0.00,weatherlink.com 1.10,2013-03-03 06:39:00,
2013-03-03 01:54:00,18.4,12.0,29.86,SSE,155,6.0,-999.0,77,-99.99,,,0.00,weatherlink.com 1.10,2013-03-03 06:54:00,
2013-03-03 02:09:00,18.3,12.0,29.86,WNW,289,6.0,-999.0,77,-99.99,,,0.00,weatherlink.com 1.10,2013-03-03 07:09:00,
2013-03-03 02:24:00,18.3,13.0,29.86,SE,144,5.0,-999.0,79,-99.99,,,0.00,weatherlink.com 1.10,2013-03-03 07:24:00,
2013-03-03 02:39:00,18.3,13.0,29.87,SSW,196,7.0,-999.0,80,-99.99,,,0.00,weatherlink.com 1.10,2013-03-03 07:39:00,
2013-03-03 02:54:00,18.3,13.0,29.86,SSW,206,4.0,-999.0,79,-99.99,,,0.00,weatherlink.com 1.10,2013-03-03 07:54:00,
2013-03-03 03:09:00,18.3,13.0,29.85,SW,232,2.0,-999.0,78,-99.99,,,0.00,weatherlink.com 1.10,2013-03-03 08:09:00,
2013-03-03 03:24:00,18.3,12.0,29.85,South,188,6.0,-999.0,77,-99.99,,,0.00,weatherlink.com 1.10,2013-03-03 08:24:00,
2013-03-03 03:40:00,18.3,13.0,29.86,SSE,158,8.0,-999.0,79,-99.99,,,0.00,weatherlink.com 1.10,2013-03-03 08:40:00,
2013-03-03 03:55:00,18.3,13.0,29.86,SSE,152,2.0,-999.0,79,-99.99,,,0.00,weatherlink.com 1.10,2013-03-03 08:55:00,
2013-03-03 04:10:00,18.4,13.0,29.86,SSE,162,6.0,-999.0,80,-99.99,,,0.00,weatherlink.com 1.10,2013-03-03 09:10:00,
2013-03-03 04:25:00,18.6,14.0,29.86,SE,145,6.0,-999.0,81,-99.99,,,0.00,weatherlink.com 1.10,2013-03-03 09:25:00,
2013-03-03 04:40:00,18.6,14.0,29.86,North,357,3.0,-999.0,82,-99.99,,,0.00,weatherlink.com 1.10,2013-03-03 09:40:00,
2013-03-03 04:55:00,18.4,14.0,29.86,ESE,116,6.0,-999.0,82,-99.99,,,0.00,weatherlink.com 1.10,2013-03-03 09:55:00,
2013-03-03 05:10:00,18.4,14.0,29.87,SSE,154,6.0,-999.0,81,-99.99,,,0.00,weatherlink.com 1.10,2013-03-03 10:10:00,
2013-03-03 05:25:00,18.1,13.0,29.87,South,169,3.0,-999.0,79,-99.99,,,0.00,weatherlink.com 1.10,2013-03-03 10:25:00,
2013-03-03 05:40:00,17.7,11.0,29.87,SSE,160,5.0,-999.0,76,-99.99,,,0.00,weatherlink.com 1.10,2013-03-03 10:40:00,
2013-03-03 05:55:00,17.3,10.0,29.88,SE,144,2.0,-999.0,73,-99.99,,,0.00,weatherlink.com 1.10,2013-03-03 10:55:00,
2013-03-03 06:10:00,17.2,11.0,29.89,SSE,160,8.0,-999.0,78,-99.99,,,0.00,weatherlink.com 1.10,2013-03-03 11:10:00,
2013-03-03 06:25:00,17.2,11.0,29.89,South,185,5.0,-999.0,78,-99.99,,,0.00,weatherlink.com 1.10,2013-03-03 11:25:00,
2013-03-03 06:40:00,17.0,12.0,29.90,SSE,152,1.0,-999.0,79,-99.99,,,0.00,weatherlink.com 1.10,2013-03-03 11:40:00,
2013-03-03 06:55:00,16.9,11.0,29.90,SE,140,6.0,-999.0,79,-99.99,,,0.00,weatherlink.com 1.10,2013-03-03 11:55:00,
2013-03-03 07:10:00,17.0,12.0,29.91,SSE,154,2.0,-999.0,81,-99.99,,,0.00,weatherlink.com 1.10,2013-03-03 12:10:00,
2013-03-03 07:25:00,17.2,13.0,29.91,SSE,161,5.0,-999.0,82,-99.99,,,0.00,weatherlink.com 1.10,2013-03-03 12:25:00,
2013-03-03 07:40:00,17.5,13.0,29.91,South,178,6.0,-999.0,83,-99.99,,,0.00,weatherlink.com 1.10,2013-03-03 12:40:00,
2013-03-03 07:55:00,18.0,13.0,29.91,South,169,6.0,-999.0,81,-99.99,,,0.00,weatherlink.com 1.10,2013-03-03 12:55:00,
2013-03-03 08:10:00,18.6,13.0,29.92,SSE,158,3.0,-999.0,79,-99.99,,,0.00,weatherlink.com 1.10,2013-03-03 13:10:00,
2013-03-03 08:25:00,19.1,13.0,29.91,SSW,192,8.0,-999.0,76,-99.99,,,0.00,weatherlink.com 1.10,2013-03-03 13:25:00,
2013-03-03 08:40:00,19.4,13.0,29.92,East,83,1.0,-999.0,75,-99.99,,,0.00,weatherlink.com 1.10,2013-03-03 13:40:00,
2013-03-03 08:55:00,20.2,13.0,29.92,SE,141,5.0,-999.0,75,-99.99,,,0.00,weatherlink.com 1.10,2013-03-03 13:55:00,
2013-03-03 09:10:00,21.4,13.0,29.92,East,88,5.0,-999.0,70,-99.99,,,0.00,weatherlink.com 1.10,2013-03-03 14:10:00,
2013-03-03 09:25:00,22.2,13.0,29.93,South,176,12.0,-999.0,67,-99.99,,,0.00,weatherlink.com 1.10,2013-03-03 14:25:00,
2013-03-03 09:40:00,22.5,13.0,29.93,South,188,3.0,-999.0,66,-99.99,,,0.00,weatherlink.com 1.10,2013-03-03 14:40:00,
2013-03-03 09:55:00,23.2,12.0,29.92,NW,309,3.0,-999.0,63,-99.99,,,0.00,weatherlink.com 1.10,2013-03-03 14:55:00,
2013-03-03 10:10:00,24.2,12.0,29.92,SSE,152,2.0,-999.0,61,-99.99,,,0.00,weatherlink.com 1.10,2013-03-03 15:10:00,
2013-03-03 10:25:00,25.1,15.0,29.92,WNW,294,0.0,-999.0,66,-99.99,,,0.00,weatherlink.com 1.10,2013-03-03 15:25:00,
2013-03-03 10:40:00,25.7,15.0,29.92,WNW,301,2.0,-999.0,63,-99.99,,,0.00,weatherlink.com 1.10,2013-03-03 15:40:00,
2013-03-03 10:55:00,26.3,16.0,29.92,South,169,5.0,-999.0,64,-99.99,,,0.00,weatherlink.com 1.10,2013-03-03 15:55:00,
2013-03-03 11:10:00,27.2,16.0,29.91,West,274,4.0,-999.0,64,-99.99,,,0.00,weatherlink.com 1.10,2013-03-03 16:10:00,
2013-03-03 11:26:00,25.6,16.0,29.91,SSE,161,1.0,-999.0,67,-99.99,,,0.00,weatherlink.com 1.10,2013-03-03 16:26:00,
2013-03-03 11:40:00,26.0,15.0,29.93,NW,312,1.0,-999.0,63,-99.99,,,0.00,weatherlink.com 1.10,2013-03-03 16:40:00,
2013-03-03 11:56:00,27.8,17.0,29.92,ESE,104,3.0,-999.0,64,-99.99,,,0.00,weatherlink.com 1.10,2013-03-03 16:56:00,
2013-03-03 12:11:00,27.6,16.0,29.91,South,175,6.0,-999.0,63,-99.99,,,0.00,weatherlink.com 1.10,2013-03-03 17:11:00,
2013-03-03 12:26:00,26.7,16.0,29.91,North,0,0.0,-999.0,63,-99.99,,,0.00,weatherlink.com 1.10,2013-03-03 17:26:00,
2013-03-03 12:41:00,24.8,15.0,29.91,NNW,330,2.0,-999.0,65,-99.99,,,0.00,weatherlink.com 1.10,2013-03-03 17:41:00,
2013-03-03 12:56:00,24.7,14.0,29.92,WNW,288,0.0,-999.0,64,-99.99,,,0.00,weatherlink.com 1.10,2013-03-03 17:56:00,
2013-03-03 13:11:00,25.7,15.0,29.92,SE,141,4.0,-999.0,65,-99.99,,,0.00,weatherlink.com 1.10,2013-03-03 18:11:00,
2013-03-03 13:26:00,25.4,15.0,29.91,SW,224,2.0,-999.0,66,-99.99,,,0.00,weatherlink.com 1.10,2013-03-03 18:26:00,
2013-03-03 13:41:00,26.3,15.0,29.91,SSE,152,10.0,-999.0,62,-99.99,,,0.00,weatherlink.com 1.10,2013-03-03 18:41:00,
2013-03-03 13:56:00,27.6,17.0,29.90,WNW,287,3.0,-999.0,65,-99.99,,,0.00,weatherlink.com 1.10,2013-03-03 18:56:00,
2013-03-03 14:11:00,26.7,15.0,29.89,SSE,160,10.0,-999.0,61,-99.99,,,0.00,weatherlink.com 1.10,2013-03-03 19:11:00,
2013-03-03 14:26:00,25.0,15.0,29.90,NW,308,5.0,-999.0,67,-99.99,,,0.00,weatherlink.com 1.10,2013-03-03 19:26:00,
2013-03-03 14:41:00,25.6,15.0,29.91,West,274,5.0,-999.0,65,-99.99,,,0.00,weatherlink.com 1.10,2013-03-03 19:41:00,
2013-03-03 14:56:00,26.0,16.0,29.90,WNW,296,1.0,-999.0,65,-99.99,,,0.00,weatherlink.com 1.10,2013-03-03 19:56:00,
2013-03-03 15:11:00,26.3,15.0,29.90,ESE,121,3.0,-999.0,62,-99.99,,,0.00,weatherlink.com 1.10,2013-03-03 20:11:00,
2013-03-03 15:26:00,26.0,17.0,29.90,West,280,1.0,-999.0,68,-99.99,,,0.00,weatherlink.com 1.10,2013-03-03 20:26:00,
2013-03-03 15:41:00,25.6,15.0,29.91,SSE,168,6.0,-999.0,65,-99.99,,,0.00,weatherlink.com 1.10,2013-03-03 20:41:00,
2013-03-03 15:56:00,25.6,15.0,29.91,South,184,13.0,-999.0,64,-99.99,,,0.00,weatherlink.com 1.10,2013-03-03 20:56:00,
2013-03-03 16:11:00,25.6,16.0,29.91,SSE,167,1.0,-999.0,68,-99.99,,,0.00,weatherlink.com 1.10,2013-03-03 21:11:00,
2013-03-03 16:26:00,24.7,17.0,29.90,SSW,192,5.0,-999.0,72,-99.99,,,0.00,weatherlink.com 1.10,2013-03-03 21:26:00,
2013-03-03 16:41:00,24.4,14.0,29.91,SSE,162,1.0,-999.0,66,-99.99,,,0.00,weatherlink.com 1.10,2013-03-03 21:41:00,
2013-03-03 16:56:00,24.7,15.0,29.93,ENE,73,5.0,-999.0,67,-99.99,,,0.00,weatherlink.com 1.10,2013-03-03 21:56:00,
2013-03-03 17:11:00,24.4,15.0,29.93,NW,304,1.0,-999.0,68,-99.99,,,0.00,weatherlink.com 1.10,2013-03-03 22:11:00,
2013-03-03 17:26:00,23.6,15.0,29.93,ESE,104,3.0,-999.0,70,-99.99,,,0.00,weatherlink.com 1.10,2013-03-03 22:26:00,
2013-03-03 17:41:00,22.9,18.0,29.94,North,356,2.0,-999.0,80,-99.99,,,0.00,weatherlink.com 1.10,2013-03-03 22:41:00,
2013-03-03 17:56:00,21.9,16.0,29.94,NE,35,0.0,-999.0,79,-99.99,,,0.00,weatherlink.com 1.10,2013-03-03 22:56:00,
2013-03-03 18:11:00,21.9,16.0,29.96,SSE,161,3.0,-999.0,77,-99.99,,,0.00,weatherlink.com 1.10,2013-03-03 23:11:00,
2013-03-03 18:26:00,21.8,17.0,29.95,South,186,1.0,-999.0,82,-99.99,,,0.00,weatherlink.com 1.10,2013-03-03 23:26:00,
2013-03-03 18:41:00,21.3,15.0,29.96,North,0,6.0,-999.0,78,-99.99,,,0.00,weatherlink.com 1.10,2013-03-03 23:41:00,
2013-03-03 18:56:00,21.4,15.0,29.96,SW,232,0.0,-999.0,75,-99.99,,,0.00,weatherlink.com 1.10,2013-03-03 23:56:00,
2013-03-03 19:11:00,21.4,14.0,29.97,NE,34,2.0,-999.0,73,-99.99,,,0.00,weatherlink.com 1.10,2013-03-04 00:11:00,
2013-03-03 19:26:00,21.4,14.0,29.97,West,264,11.0,-999.0,72,-99.99,,,0.00,weatherlink.com 1.10,2013-03-04 00:26:00,
2013-03-03 19:41:00,21.3,14.0,29.96,NNE,30,2.0,-999.0,73,-99.99,,,0.00,weatherlink.com 1.10,2013-03-04 00:41:00,
2013-03-03 19:56:00,21.1,14.0,29.96,WSW,237,1.0,-999.0,74,-99.99,,,0.00,weatherlink.com 1.10,2013-03-04 00:56:00,
2013-03-03 20:11:00,20.8,13.0,29.96,SSE,161,0.0,-999.0,72,-99.99,,,0.00,weatherlink.com 1.10,2013-03-04 01:11:00,
2013-03-03 20:26:00,20.5,12.0,29.96,WSW,240,0.0,-999.0,70,-99.99,,,0.00,weatherlink.com 1.10,2013-03-04 01:26:00,
2013-03-03 20:41:00,20.3,12.0,29.95,West,274,3.0,-999.0,70,-99.99,,,0.00,weatherlink.com 1.10,2013-03-04 01:41:00,
2013-03-03 20:56:00,20.2,12.0,29.96,SE,136,4.0,-999.0,70,-99.99,,,0.00,weatherlink.com 1.10,2013-03-04 01:56:00,
2013-03-03 21:11:00,20.2,12.0,29.96,SSE,165,2.0,-999.0,70,-99.99,,,0.00,weatherlink.com 1.10,2013-03-04 02:11:00,
2013-03-03 21:26:00,20.2,12.0,29.97,SE,145,7.0,-999.0,69,-99.99,,,0.00,weatherlink.com 1.10,2013-03-04 02:26:00,
2013-03-03 21:41:00,20.2,12.0,29.95,NW,308,2.0,-999.0,71,-99.99,,,0.00,weatherlink.com 1.10,2013-03-04 02:41:00,
2013-03-03 21:56:00,20.0,11.0,29.96,ESE,107,2.0,-999.0,67,-99.99,,,0.00,weatherlink.com 1.10,2013-03-04 02:56:00,
2013-03-03 22:11:00,20.0,12.0,29.96,West,270,1.0,-999.0,70,-99.99,,,0.00,weatherlink.com 1.10,2013-03-04 03:11:00,
2013-03-03 22:26:00,20.0,12.0,29.97,SE,133,3.0,-999.0,71,-99.99,,,0.00,weatherlink.com 1.10,2013-03-04 03:26:00,
2013-03-03 22:41:00,19.9,12.0,29.95,SSE,158,4.0,-999.0,71,-99.99,,,0.00,weatherlink.com 1.10,2013-03-04 03:41:00,
2013-03-03 22:56:00,19.7,12.0,29.95,West,270,2.0,-999.0,71,-99.99,,,0.00,weatherlink.com 1.10,2013-03-04 03:56:00,
2013-03-03 23:11:00,19.7,12.0,29.94,East,97,3.0,-999.0,72,-99.99,,,0.00,weatherlink.com 1.10,2013-03-04 04:11:00,
2013-03-03 23:26:00,19.5,12.0,29.94,WSW,243,2.0,-999.0,73,-99.99,,,0.00,weatherlink.com 1.10,2013-03-04 04:26:00,
2013-03-03 23:41:00,19.4,12.0,29.92,East,97,2.0,-999.0,74,-99.99,,,0.00,weatherlink.com 1.10,2013-03-04 04:41:00,
2013-03-03 23:56:00,19.2,12.0,29.93,SE,130,6.0,-999.0,73,-99.99,,,0.00,weatherlink.com 1.10,2013-03-04 04:56:00,